sensor_id;sensor_type;location;lat;lon;timestamp;pressure;altitude;pressure_sealevel;temperature;humidity
6224;BME280;3145;42.726;23.342;2023-03-25T00:01:34;72538.75;;;-142.70;55.76
6224;BME280;3145;42.726;23.342;2023-03-25T00:04:02;72548.81;;;-142.70;55.96
6224;BME280;3145;42.726;23.342;2023-03-25T00:06:30;72560.91;;;-142.70;56.33
6224;BME280;3145;42.726;23.342;2023-03-25T00:09:00;72568.97;;;-142.70;56.67
6224;BME280;3145;42.726;23.342;2023-03-25T00:11:28;72568.97;;;-142.70;56.74
6224;BME280;3145;42.726;23.342;2023-03-25T00:13:55;72579.03;;;-142.70;57.13
6224;BME280;3145;42.726;23.342;2023-03-25T00:16:22;72577.00;;;-142.70;57.82
6224;BME280;3145;42.726;23.342;2023-03-25T00:18:49;72585.06;;;-142.70;57.96
6224;BME280;3145;42.726;23.342;2023-03-25T00:21:16;72595.16;;;-142.70;58.56
6224;BME280;3145;42.726;23.342;2023-03-25T00:23:43;72607.22;;;-142.70;58.30
6224;BME280;3145;42.726;23.342;2023-03-25T00:26:12;72601.19;;;-142.70;59.18
6224;BME280;3145;42.726;23.342;2023-03-25T00:28:38;72609.25;;;-142.70;59.22
6224;BME280;3145;42.726;23.342;2023-03-25T00:31:07;72613.28;;;-142.70;59.56
6224;BME280;3145;42.726;23.342;2023-03-25T00:33:36;72621.34;;;-142.70;60.16
6224;BME280;3145;42.726;23.342;2023-03-25T00:36:06;72627.38;;;-142.70;60.32
6224;BME280;3145;42.726;23.342;2023-03-25T00:38:34;72627.38;;;-142.70;60.25
6224;BME280;3145;42.726;23.342;2023-03-25T00:41:15;72627.38;;;-142.70;60.62
6224;BME280;3145;42.726;23.342;2023-03-25T00:43:47;72637.44;;;-142.70;61.24
6224;BME280;3145;42.726;23.342;2023-03-25T00:46:14;72629.38;;;-142.70;60.83
6224;BME280;3145;42.726;23.342;2023-03-25T00:48:41;72643.50;;;-142.70;60.94
6224;BME280;3145;42.726;23.342;2023-03-25T00:51:08;72647.53;;;-142.70;61.18
6224;BME280;3145;42.726;23.342;2023-03-25T00:53:39;72645.50;;;-142.70;60.86
6224;BME280;3145;42.726;23.342;2023-03-25T00:56:06;72647.53;;;-142.70;61.74
6224;BME280;3145;42.726;23.342;2023-03-25T00:58:34;72653.56;;;-142.70;62.06
6224;BME280;3145;42.726;23.342;2023-03-25T01:01:07;72651.56;;;-142.70;62.14
6224;BME280;3145;42.726;23.342;2023-03-25T01:03:35;72657.59;;;-142.70;62.45
6224;BME280;3145;42.726;23.342;2023-03-25T01:06:02;72653.56;;;-142.70;62.32
6224;BME280;3145;42.726;23.342;2023-03-25T01:08:29;72657.59;;;-142.70;62.18
6224;BME280;3145;42.726;23.342;2023-03-25T01:10:57;72657.59;;;-142.70;62.48
6224;BME280;3145;42.726;23.342;2023-03-25T01:13:23;72661.63;;;-142.70;62.73
6224;BME280;3145;42.726;23.342;2023-03-25T01:15:57;72657.59;;;-142.70;63.28
6224;BME280;3145;42.726;23.342;2023-03-25T01:18:23;72661.63;;;-142.70;63.17
6224;BME280;3145;42.726;23.342;2023-03-25T01:20:50;72665.66;;;-142.70;63.23
6224;BME280;3145;42.726;23.342;2023-03-25T01:23:17;72669.69;;;-142.70;63.44
6224;BME280;3145;42.726;23.342;2023-03-25T01:25:43;72673.72;;;-142.70;63.30
6224;BME280;3145;42.726;23.342;2023-03-25T01:28:10;72667.66;;;-142.70;63.82
6224;BME280;3145;42.726;23.342;2023-03-25T01:30:37;72665.66;;;-142.70;64.06
6224;BME280;3145;42.726;23.342;2023-03-25T01:33:05;72669.69;;;-142.70;63.26
6224;BME280;3145;42.726;23.342;2023-03-25T01:35:32;72669.69;;;-142.70;64.00
6224;BME280;3145;42.726;23.342;2023-03-25T01:37:58;72691.84;;;-142.70;64.08
6224;BME280;3145;42.726;23.342;2023-03-25T01:40:25;72695.88;;;-142.70;64.01
6224;BME280;3145;42.726;23.342;2023-03-25T01:42:52;72697.88;;;-142.70;63.68
6224;BME280;3145;42.726;23.342;2023-03-25T01:45:22;72697.88;;;-142.70;64.11
6224;BME280;3145;42.726;23.342;2023-03-25T01:47:53;72707.97;;;-142.70;64.28
6224;BME280;3145;42.726;23.342;2023-03-25T01:50:24;72705.94;;;-142.70;64.91
6224;BME280;3145;42.726;23.342;2023-03-25T01:52:55;72714.00;;;-142.70;65.11
6224;BME280;3145;42.726;23.342;2023-03-25T01:55:22;72701.91;;;-142.70;65.19
6224;BME280;3145;42.726;23.342;2023-03-25T01:57:53;72697.88;;;-142.70;65.48
6224;BME280;3145;42.726;23.342;2023-03-25T02:00:24;72709.97;;;-142.70;65.09
6224;BME280;3145;42.726;23.342;2023-03-25T02:02:51;72707.97;;;-142.70;65.72
6224;BME280;3145;42.726;23.342;2023-03-25T02:05:28;72714.00;;;-142.70;65.58
6224;BME280;3145;42.726;23.342;2023-03-25T02:07:58;72709.97;;;-142.70;65.95
6224;BME280;3145;42.726;23.342;2023-03-25T02:10:28;72724.06;;;-142.70;65.60
6224;BME280;3145;42.726;23.342;2023-03-25T02:12:56;72722.06;;;-142.70;66.20
6224;BME280;3145;42.726;23.342;2023-03-25T02:15:24;72728.09;;;-142.70;65.87
6224;BME280;3145;42.726;23.342;2023-03-25T02:18:02;72732.13;;;-142.70;65.99
6224;BME280;3145;42.726;23.342;2023-03-25T02:21:02;72730.13;;;-142.70;66.30
6224;BME280;3145;42.726;23.342;2023-03-25T02:24:00;72728.09;;;-142.70;66.37
6224;BME280;3145;42.726;23.342;2023-03-25T02:27:03;72732.13;;;-142.70;65.97
6224;BME280;3145;42.726;23.342;2023-03-25T02:29:48;72726.09;;;-142.70;66.42
6224;BME280;3145;42.726;23.342;2023-03-25T02:32:39;72742.22;;;-142.70;66.68
6224;BME280;3145;42.726;23.342;2023-03-25T02:35:26;72744.22;;;-142.70;66.60
6224;BME280;3145;42.726;23.342;2023-03-25T02:38:12;72744.22;;;-142.70;66.83
6224;BME280;3145;42.726;23.342;2023-03-25T02:40:44;72738.19;;;-142.70;66.81
6224;BME280;3145;42.726;23.342;2023-03-25T02:43:17;72734.16;;;-142.70;66.83
6224;BME280;3145;42.726;23.342;2023-03-25T02:45:49;72742.22;;;-142.70;66.90
6224;BME280;3145;42.726;23.342;2023-03-25T02:48:20;72746.25;;;-142.70;66.70
6224;BME280;3145;42.726;23.342;2023-03-25T02:50:50;72754.28;;;-142.70;66.93
6224;BME280;3145;42.726;23.342;2023-03-25T02:53:23;72762.34;;;-142.70;66.77
6224;BME280;3145;42.726;23.342;2023-03-25T02:55:54;72754.28;;;-142.70;67.30
6224;BME280;3145;42.726;23.342;2023-03-25T02:58:24;72746.25;;;-142.70;66.82
6224;BME280;3145;42.726;23.342;2023-03-25T03:00:54;72758.31;;;-142.70;66.54
6224;BME280;3145;42.726;23.342;2023-03-25T03:03:23;72750.28;;;-142.70;66.95
6224;BME280;3145;42.726;23.342;2023-03-25T03:05:52;72754.28;;;-142.70;67.71
6224;BME280;3145;42.726;23.342;2023-03-25T03:08:35;72758.31;;;-142.70;67.34
6224;BME280;3145;42.726;23.342;2023-03-25T03:11:11;72772.44;;;-142.70;67.31
6224;BME280;3145;42.726;23.342;2023-03-25T03:13:59;72770.41;;;-142.70;67.55
6224;BME280;3145;42.726;23.342;2023-03-25T03:16:33;72776.47;;;-142.70;67.33
6224;BME280;3145;42.726;23.342;2023-03-25T03:19:12;72782.50;;;-142.70;67.48
6224;BME280;3145;42.726;23.342;2023-03-25T03:21:51;72778.47;;;-142.70;67.98
6224;BME280;3145;42.726;23.342;2023-03-25T03:24:26;72774.44;;;-142.70;67.28
6224;BME280;3145;42.726;23.342;2023-03-25T03:26:57;72778.47;;;-142.70;67.32
6224;BME280;3145;42.726;23.342;2023-03-25T03:29:26;72778.47;;;-142.70;67.95
6224;BME280;3145;42.726;23.342;2023-03-25T03:31:58;72774.44;;;-142.70;67.59
6224;BME280;3145;42.726;23.342;2023-03-25T03:34:30;72792.56;;;-142.70;67.24
6224;BME280;3145;42.726;23.342;2023-03-25T03:37:02;72794.59;;;-142.70;67.38
6224;BME280;3145;42.726;23.342;2023-03-25T03:39:34;72794.59;;;-142.70;67.71
6224;BME280;3145;42.726;23.342;2023-03-25T03:42:05;72796.59;;;-142.70;67.86
6224;BME280;3145;42.726;23.342;2023-03-25T03:44:35;72802.66;;;-142.70;67.66
6224;BME280;3145;42.726;23.342;2023-03-25T03:47:04;72804.66;;;-142.70;67.91
6224;BME280;3145;42.726;23.342;2023-03-25T03:49:35;72802.66;;;-142.70;67.96
6224;BME280;3145;42.726;23.342;2023-03-25T03:52:07;72802.66;;;-142.70;67.74
6224;BME280;3145;42.726;23.342;2023-03-25T03:54:41;72796.59;;;-142.70;67.41
6224;BME280;3145;42.726;23.342;2023-03-25T03:57:14;72798.63;;;-142.70;68.21
6224;BME280;3145;42.726;23.342;2023-03-25T03:59:51;72798.63;;;-142.70;68.43
6224;BME280;3145;42.726;23.342;2023-03-25T04:02:27;72804.66;;;-142.70;68.00
6224;BME280;3145;42.726;23.342;2023-03-25T04:04:54;72808.69;;;-142.70;68.01
6224;BME280;3145;42.726;23.342;2023-03-25T04:07:31;72814.75;;;-142.70;68.20
6224;BME280;3145;42.726;23.342;2023-03-25T04:10:10;72818.75;;;-142.70;68.56
6224;BME280;3145;42.726;23.342;2023-03-25T04:12:42;72806.69;;;-142.70;68.68
6224;BME280;3145;42.726;23.342;2023-03-25T04:15:11;72810.72;;;-142.70;68.80
6224;BME280;3145;42.726;23.342;2023-03-25T04:17:38;72806.69;;;-142.70;68.05
6224;BME280;3145;42.726;23.342;2023-03-25T04:20:06;72810.72;;;-142.70;68.34
6224;BME280;3145;42.726;23.342;2023-03-25T04:22:36;72810.72;;;-142.70;68.14
6224;BME280;3145;42.726;23.342;2023-03-25T04:25:05;72810.72;;;-142.70;68.41
6224;BME280;3145;42.726;23.342;2023-03-25T04:27:32;72806.69;;;-142.70;68.56
6224;BME280;3145;42.726;23.342;2023-03-25T04:30:03;72802.66;;;-142.70;67.82
6224;BME280;3145;42.726;23.342;2023-03-25T04:32:30;72802.66;;;-142.70;68.35
6224;BME280;3145;42.726;23.342;2023-03-25T04:34:56;72782.50;;;-142.70;68.39
6224;BME280;3145;42.726;23.342;2023-03-25T04:37:24;72762.34;;;-142.70;67.86
6224;BME280;3145;42.726;23.342;2023-03-25T04:39:51;72730.13;;;-142.70;67.60
6224;BME280;3145;42.726;23.342;2023-03-25T04:42:21;72695.88;;;-142.70;67.37
6224;BME280;3145;42.726;23.342;2023-03-25T04:44:50;72681.78;;;-142.70;66.30
6224;BME280;3145;42.726;23.342;2023-03-25T04:47:20;72637.44;;;-142.70;66.10
6224;BME280;3145;42.726;23.342;2023-03-25T04:49:48;72595.16;;;-142.70;65.39
6224;BME280;3145;42.726;23.342;2023-03-25T04:52:15;72552.84;;;-142.70;64.93
6224;BME280;3145;42.726;23.342;2023-03-25T04:54:42;72516.56;;;-142.70;64.14
6224;BME280;3145;42.726;23.342;2023-03-25T04:57:09;72476.28;;;-142.70;62.47
6224;BME280;3145;42.726;23.342;2023-03-25T04:59:37;72452.13;;;-142.70;61.10
6224;BME280;3145;42.726;23.342;2023-03-25T05:02:04;72415.84;;;-142.70;60.51
6224;BME280;3145;42.726;23.342;2023-03-25T05:04:32;72367.50;;;-142.70;58.54
6224;BME280;3145;42.726;23.342;2023-03-25T05:06:59;72327.22;;;-142.70;55.66
6224;BME280;3145;42.726;23.342;2023-03-25T05:09:26;72299.03;;;-142.70;53.25
6224;BME280;3145;42.726;23.342;2023-03-25T05:11:54;72254.72;;;-142.70;51.70
6224;BME280;3145;42.726;23.342;2023-03-25T05:14:21;72226.50;;;-142.70;50.02
6224;BME280;3145;42.726;23.342;2023-03-25T05:16:50;72214.41;;;-142.70;49.44
6224;BME280;3145;42.726;23.342;2023-03-25T05:19:17;72208.38;;;-142.70;48.84
6224;BME280;3145;42.726;23.342;2023-03-25T05:21:44;72210.38;;;-142.70;49.57
6224;BME280;3145;42.726;23.342;2023-03-25T05:24:13;72210.38;;;-142.70;48.86
6224;BME280;3145;42.726;23.342;2023-03-25T05:26:40;72182.19;;;-142.70;48.67
6224;BME280;3145;42.726;23.342;2023-03-25T05:29:10;72170.09;;;-142.70;46.35
6224;BME280;3145;42.726;23.342;2023-03-25T05:31:38;72162.03;;;-142.70;45.83
6224;BME280;3145;42.726;23.342;2023-03-25T05:34:06;72145.94;;;-142.70;45.99
6224;BME280;3145;42.726;23.342;2023-03-25T05:36:34;72115.72;;;-142.70;44.87
6224;BME280;3145;42.726;23.342;2023-03-25T05:39:01;72121.75;;;-142.70;44.86
6224;BME280;3145;42.726;23.342;2023-03-25T05:41:29;72170.09;;;-142.70;45.48
6224;BME280;3145;42.726;23.342;2023-03-25T05:43:58;72145.94;;;-142.70;45.37
6224;BME280;3145;42.726;23.342;2023-03-25T05:46:26;72178.16;;;-142.70;45.81
6224;BME280;3145;42.726;23.342;2023-03-25T05:48:54;72234.56;;;-142.70;47.11
6224;BME280;3145;42.726;23.342;2023-03-25T05:51:24;72307.06;;;-142.70;48.90
6224;BME280;3145;42.726;23.342;2023-03-25T05:53:51;72313.13;;;-142.70;50.66
6224;BME280;3145;42.726;23.342;2023-03-25T05:56:20;72319.16;;;-142.70;50.26
6224;BME280;3145;42.726;23.342;2023-03-25T05:58:49;72319.16;;;-142.70;50.64
6224;BME280;3145;42.726;23.342;2023-03-25T06:01:17;72258.72;;;-142.70;50.02
6224;BME280;3145;42.726;23.342;2023-03-25T06:03:44;72230.53;;;-142.70;48.84
6224;BME280;3145;42.726;23.342;2023-03-25T06:06:12;72162.03;;;-142.70;46.79
6224;BME280;3145;42.726;23.342;2023-03-25T06:08:40;72186.22;;;-142.70;46.97
6224;BME280;3145;42.726;23.342;2023-03-25T06:11:07;72141.91;;;-142.70;46.76
6224;BME280;3145;42.726;23.342;2023-03-25T06:13:35;72190.25;;;-142.70;46.93
6224;BME280;3145;42.726;23.342;2023-03-25T06:16:03;72194.28;;;-142.70;47.66
6224;BME280;3145;42.726;23.342;2023-03-25T06:18:30;72188.22;;;-142.70;47.85
6224;BME280;3145;42.726;23.342;2023-03-25T06:20:57;72168.09;;;-142.70;47.49
6224;BME280;3145;42.726;23.342;2023-03-25T06:23:24;72170.09;;;-142.70;46.86
6224;BME280;3145;42.726;23.342;2023-03-25T06:25:54;72135.84;;;-142.70;46.51
6224;BME280;3145;42.726;23.342;2023-03-25T06:28:23;72093.56;;;-142.70;46.41
6224;BME280;3145;42.726;23.342;2023-03-25T06:30:49;72029.09;;;-142.70;45.62
6224;BME280;3145;42.726;23.342;2023-03-25T06:33:16;71992.84;;;-142.70;43.94
6224;BME280;3145;42.726;23.342;2023-03-25T06:35:45;71960.63;;;-142.70;43.59
6224;BME280;3145;42.726;23.342;2023-03-25T06:38:14;72043.19;;;-142.70;44.01
6224;BME280;3145;42.726;23.342;2023-03-25T06:40:41;72033.13;;;-142.70;44.08
6224;BME280;3145;42.726;23.342;2023-03-25T06:43:10;72069.38;;;-142.70;44.53
6224;BME280;3145;42.726;23.342;2023-03-25T06:45:36;72085.50;;;-142.70;44.96
6224;BME280;3145;42.726;23.342;2023-03-25T06:48:03;72061.34;;;-142.70;44.34
6224;BME280;3145;42.726;23.342;2023-03-25T06:50:31;72069.38;;;-142.70;44.75
6224;BME280;3145;42.726;23.342;2023-03-25T06:52:57;72029.09;;;-142.70;44.12
6224;BME280;3145;42.726;23.342;2023-03-25T06:55:24;71976.75;;;-142.70;43.64
6224;BME280;3145;42.726;23.342;2023-03-25T06:57:53;72002.91;;;-142.70;42.70
6224;BME280;3145;42.726;23.342;2023-03-25T07:00:22;71938.47;;;-142.70;42.55
6224;BME280;3145;42.726;23.342;2023-03-25T07:02:51;72017.03;;;-142.70;44.00
6224;BME280;3145;42.726;23.342;2023-03-25T07:05:18;71892.16;;;-142.70;44.00
6224;BME280;3145;42.726;23.342;2023-03-25T07:07:44;71823.66;;;-142.70;41.86
6224;BME280;3145;42.726;23.342;2023-03-25T07:10:11;71837.75;;;-142.70;41.86
6224;BME280;3145;42.726;23.342;2023-03-25T07:12:38;71829.69;;;-142.70;42.29
6224;BME280;3145;42.726;23.342;2023-03-25T07:15:06;71803.53;;;-142.70;42.05
6224;BME280;3145;42.726;23.342;2023-03-25T07:17:34;71839.78;;;-142.70;42.65
6224;BME280;3145;42.726;23.342;2023-03-25T07:20:02;71823.66;;;-142.70;42.15
6224;BME280;3145;42.726;23.342;2023-03-25T07:22:28;71779.34;;;-142.70;41.46
6224;BME280;3145;42.726;23.342;2023-03-25T07:24:55;71729.00;;;-142.70;41.50
6224;BME280;3145;42.726;23.342;2023-03-25T07:27:23;71739.06;;;-142.70;41.02
6224;BME280;3145;42.726;23.342;2023-03-25T07:29:50;71682.69;;;-142.70;40.47
6224;BME280;3145;42.726;23.342;2023-03-25T07:32:17;71690.72;;;-142.70;40.37
6224;BME280;3145;42.726;23.342;2023-03-25T07:34:45;71646.44;;;-142.70;40.49
6224;BME280;3145;42.726;23.342;2023-03-25T07:37:11;71614.19;;;-142.70;39.76
6224;BME280;3145;42.726;23.342;2023-03-25T07:39:38;71590.03;;;-142.70;39.05
6224;BME280;3145;42.726;23.342;2023-03-25T07:42:05;71573.94;;;-142.70;38.80
6224;BME280;3145;42.726;23.342;2023-03-25T07:44:31;71495.38;;;-142.70;37.85
6224;BME280;3145;42.726;23.342;2023-03-25T07:46:58;71418.84;;;-142.70;37.51
6224;BME280;3145;42.726;23.342;2023-03-25T07:49:25;71346.34;;;-142.70;36.89
6224;BME280;3145;42.726;23.342;2023-03-25T07:51:53;71302.06;;;-142.70;36.72
6224;BME280;3145;42.726;23.342;2023-03-25T07:54:20;71285.94;;;-142.70;35.71
6224;BME280;3145;42.726;23.342;2023-03-25T07:56:48;71287.97;;;-142.70;35.25
6224;BME280;3145;42.726;23.342;2023-03-25T07:59:17;71279.91;;;-142.70;36.16
6224;BME280;3145;42.726;23.342;2023-03-25T08:01:43;71312.13;;;-142.70;35.69
6224;BME280;3145;42.726;23.342;2023-03-25T08:04:10;71283.94;;;-142.70;35.25
6224;BME280;3145;42.726;23.342;2023-03-25T08:06:38;71251.72;;;-142.70;35.97
6224;BME280;3145;42.726;23.342;2023-03-25T08:09:06;71231.56;;;-142.70;36.14
6224;BME280;3145;42.726;23.342;2023-03-25T08:11:33;71251.72;;;-142.70;35.79
6224;BME280;3145;42.726;23.342;2023-03-25T08:13:59;71195.31;;;-142.70;35.68
6224;BME280;3145;42.726;23.342;2023-03-25T08:16:26;71155.06;;;-142.70;35.31
6224;BME280;3145;42.726;23.342;2023-03-25T08:18:53;71199.34;;;-142.70;35.23
6224;BME280;3145;42.726;23.342;2023-03-25T08:21:20;71144.97;;;-142.70;34.51
6224;BME280;3145;42.726;23.342;2023-03-25T08:23:50;71219.50;;;-142.70;35.49
6224;BME280;3145;42.726;23.342;2023-03-25T08:26:18;71287.97;;;-142.70;36.62
6224;BME280;3145;42.726;23.342;2023-03-25T08:28:44;71281.91;;;-142.70;35.77
6224;BME280;3145;42.726;23.342;2023-03-25T08:31:12;71263.78;;;-142.70;36.08
6224;BME280;3145;42.726;23.342;2023-03-25T08:33:39;71263.78;;;-142.70;35.88
6224;BME280;3145;42.726;23.342;2023-03-25T08:36:08;71291.97;;;-142.70;35.83
6224;BME280;3145;42.726;23.342;2023-03-25T08:38:38;71267.81;;;-142.70;35.78
6224;BME280;3145;42.726;23.342;2023-03-25T08:41:05;71199.34;;;-142.70;36.22
6224;BME280;3145;42.726;23.342;2023-03-25T08:43:33;71199.34;;;-142.70;36.06
6224;BME280;3145;42.726;23.342;2023-03-25T08:46:00;71271.84;;;-142.70;36.61
6224;BME280;3145;42.726;23.342;2023-03-25T08:48:26;71257.75;;;-142.70;36.56
6224;BME280;3145;42.726;23.342;2023-03-25T08:50:53;71316.16;;;-142.70;37.09
6224;BME280;3145;42.726;23.342;2023-03-25T08:53:20;71283.94;;;-142.70;37.15
6224;BME280;3145;42.726;23.342;2023-03-25T08:55:50;71249.69;;;-142.70;36.76
6224;BME280;3145;42.726;23.342;2023-03-25T08:58:17;71231.56;;;-142.70;36.36
6224;BME280;3145;42.726;23.342;2023-03-25T09:00:46;71191.28;;;-142.70;36.07
6224;BME280;3145;42.726;23.342;2023-03-25T09:03:13;71126.84;;;-142.70;36.11
6224;BME280;3145;42.726;23.342;2023-03-25T09:05:40;71090.63;;;-142.70;35.05
6224;BME280;3145;42.726;23.342;2023-03-25T09:08:08;71014.09;;;-142.70;34.68
6224;BME280;3145;42.726;23.342;2023-03-25T09:10:34;70991.94;;;-142.70;34.33
6224;BME280;3145;42.726;23.342;2023-03-25T09:13:01;71022.16;;;-142.70;33.75
6224;BME280;3145;42.726;23.342;2023-03-25T09:15:28;71030.19;;;-142.70;33.44
6224;BME280;3145;42.726;23.342;2023-03-25T09:17:56;70987.91;;;-142.70;33.34
6224;BME280;3145;42.726;23.342;2023-03-25T09:20:23;70985.91;;;-142.70;33.93
6224;BME280;3145;42.726;23.342;2023-03-25T09:22:50;71006.03;;;-142.70;33.64
6224;BME280;3145;42.726;23.342;2023-03-25T09:25:16;71060.41;;;-142.70;34.28
6224;BME280;3145;42.726;23.342;2023-03-25T09:27:43;71040.28;;;-142.70;34.46
6224;BME280;3145;42.726;23.342;2023-03-25T09:30:11;71036.25;;;-142.70;33.85
6224;BME280;3145;42.726;23.342;2023-03-25T09:32:37;70957.72;;;-142.70;34.06
6224;BME280;3145;42.726;23.342;2023-03-25T09:35:06;70945.63;;;-142.70;34.13
6224;BME280;3145;42.726;23.342;2023-03-25T09:37:33;70925.50;;;-142.70;33.51
6224;BME280;3145;42.726;23.342;2023-03-25T09:40:00;70879.19;;;-142.70;33.82
6224;BME280;3145;42.726;23.342;2023-03-25T09:42:36;70879.19;;;-142.70;33.12
6224;BME280;3145;42.726;23.342;2023-03-25T09:45:13;70865.09;;;-142.70;34.05
6224;BME280;3145;42.726;23.342;2023-03-25T09:47:50;70905.34;;;-142.70;32.46
6224;BME280;3145;42.726;23.342;2023-03-25T09:50:21;70889.25;;;-142.70;33.07
6224;BME280;3145;42.726;23.342;2023-03-25T09:52:53;70824.81;;;-142.70;31.93
6224;BME280;3145;42.726;23.342;2023-03-25T09:55:25;70786.56;;;-142.70;31.18
6224;BME280;3145;42.726;23.342;2023-03-25T09:57:59;70744.28;;;-142.70;30.92
6224;BME280;3145;42.726;23.342;2023-03-25T10:00:26;70776.50;;;-142.70;30.12
6224;BME280;3145;42.726;23.342;2023-03-25T10:03:06;70780.53;;;-142.70;30.22
6224;BME280;3145;42.726;23.342;2023-03-25T10:05:57;70746.28;;;-142.70;29.53
6224;BME280;3145;42.726;23.342;2023-03-25T10:08:33;70712.06;;;-142.70;28.74
6224;BME280;3145;42.726;23.342;2023-03-25T10:11:07;70659.72;;;-142.70;28.84
6224;BME280;3145;42.726;23.342;2023-03-25T10:13:44;70675.81;;;-142.70;29.20
6224;BME280;3145;42.726;23.342;2023-03-25T10:16:22;70653.69;;;-142.70;28.84
6224;BME280;3145;42.726;23.342;2023-03-25T10:19:00;70635.56;;;-142.70;28.52
6224;BME280;3145;42.726;23.342;2023-03-25T10:21:39;70629.50;;;-142.70;28.56
6224;BME280;3145;42.726;23.342;2023-03-25T10:24:16;70575.16;;;-142.70;27.85
6224;BME280;3145;42.726;23.342;2023-03-25T10:26:47;70581.19;;;-142.70;28.11
6224;BME280;3145;42.726;23.342;2023-03-25T10:29:18;70553.00;;;-142.70;27.81
6224;BME280;3145;42.726;23.342;2023-03-25T10:31:50;70575.16;;;-142.70;28.21
6224;BME280;3145;42.726;23.342;2023-03-25T10:34:19;70579.19;;;-142.70;28.66
6224;BME280;3145;42.726;23.342;2023-03-25T10:36:51;70534.88;;;-142.70;27.65
6224;BME280;3145;42.726;23.342;2023-03-25T10:39:21;70532.88;;;-142.70;27.64
6224;BME280;3145;42.726;23.342;2023-03-25T10:41:51;70520.78;;;-142.70;27.88
6224;BME280;3145;42.726;23.342;2023-03-25T10:44:22;70583.22;;;-142.70;28.11
6224;BME280;3145;42.726;23.342;2023-03-25T10:46:56;70546.97;;;-142.70;27.92
6224;BME280;3145;42.726;23.342;2023-03-25T10:49:26;70502.69;;;-142.70;27.96
6224;BME280;3145;42.726;23.342;2023-03-25T10:51:55;70486.56;;;-142.70;27.20
6224;BME280;3145;42.726;23.342;2023-03-25T10:54:26;70478.50;;;-142.70;26.94
6224;BME280;3145;42.726;23.342;2023-03-25T10:56:57;70494.63;;;-142.70;27.00
6224;BME280;3145;42.726;23.342;2023-03-25T10:59:29;70526.84;;;-142.70;26.82
6224;BME280;3145;42.726;23.342;2023-03-25T11:02:01;70518.78;;;-142.70;27.08
6224;BME280;3145;42.726;23.342;2023-03-25T11:04:32;70506.69;;;-142.70;27.23
6224;BME280;3145;42.726;23.342;2023-03-25T11:07:08;70508.72;;;-142.70;27.47
6224;BME280;3145;42.726;23.342;2023-03-25T11:09:38;70530.84;;;-142.70;27.22
6224;BME280;3145;42.726;23.342;2023-03-25T11:12:06;70569.13;;;-142.70;27.94
6224;BME280;3145;42.726;23.342;2023-03-25T11:14:36;70559.03;;;-142.70;27.71
6224;BME280;3145;42.726;23.342;2023-03-25T11:17:09;70514.75;;;-142.70;27.65
6224;BME280;3145;42.726;23.342;2023-03-25T11:19:43;70514.75;;;-142.70;27.82
6224;BME280;3145;42.726;23.342;2023-03-25T11:22:18;70494.63;;;-142.70;27.54
6224;BME280;3145;42.726;23.342;2023-03-25T11:24:48;70512.75;;;-142.70;27.96
6224;BME280;3145;42.726;23.342;2023-03-25T11:27:18;70462.41;;;-142.70;27.97
6224;BME280;3145;42.726;23.342;2023-03-25T11:29:51;70397.97;;;-142.70;27.71
6224;BME280;3145;42.726;23.342;2023-03-25T11:32:22;70393.97;;;-142.70;27.02
6224;BME280;3145;42.726;23.342;2023-03-25T11:34:51;70361.75;;;-142.70;27.17
6224;BME280;3145;42.726;23.342;2023-03-25T11:37:21;70337.59;;;-142.70;27.50
6224;BME280;3145;42.726;23.342;2023-03-25T11:39:50;70317.47;;;-142.70;26.57
6224;BME280;3145;42.726;23.342;2023-03-25T11:42:27;70329.53;;;-142.70;26.13
6224;BME280;3145;42.726;23.342;2023-03-25T11:44:57;70377.84;;;-142.70;25.95
6224;BME280;3145;42.726;23.342;2023-03-25T11:47:26;70383.88;;;-142.70;26.90
6224;BME280;3145;42.726;23.342;2023-03-25T11:49:55;70402.00;;;-142.70;27.17
6224;BME280;3145;42.726;23.342;2023-03-25T11:52:25;70432.22;;;-142.70;26.54
6224;BME280;3145;42.726;23.342;2023-03-25T11:54:54;70478.50;;;-142.70;27.22
6224;BME280;3145;42.726;23.342;2023-03-25T11:57:23;70482.53;;;-142.70;27.30
6224;BME280;3145;42.726;23.342;2023-03-25T11:59:59;70494.63;;;-142.70;27.49
6224;BME280;3145;42.726;23.342;2023-03-25T12:02:35;70490.59;;;-142.70;27.51
6224;BME280;3145;42.726;23.342;2023-03-25T12:05:11;70482.53;;;-142.70;27.37
6224;BME280;3145;42.726;23.342;2023-03-25T12:07:42;70466.44;;;-142.70;27.50
6224;BME280;3145;42.726;23.342;2023-03-25T12:10:16;70488.59;;;-142.70;27.38
6224;BME280;3145;42.726;23.342;2023-03-25T12:12:52;70522.81;;;-142.70;27.20
6224;BME280;3145;42.726;23.342;2023-03-25T12:15:28;70536.91;;;-142.70;27.48
6224;BME280;3145;42.726;23.342;2023-03-25T12:18:08;70563.06;;;-142.70;27.63
6224;BME280;3145;42.726;23.342;2023-03-25T12:20:47;70615.41;;;-142.70;27.91
6224;BME280;3145;42.726;23.342;2023-03-25T12:23:30;70627.50;;;-142.70;27.93
6224;BME280;3145;42.726;23.342;2023-03-25T12:26:07;70635.56;;;-142.70;28.04
6224;BME280;3145;42.726;23.342;2023-03-25T12:28:47;70647.63;;;-142.70;28.09
6224;BME280;3145;42.726;23.342;2023-03-25T12:31:30;70651.66;;;-142.70;28.15
6224;BME280;3145;42.726;23.342;2023-03-25T12:34:07;70651.66;;;-142.70;28.28
6224;BME280;3145;42.726;23.342;2023-03-25T12:36:47;70663.75;;;-142.70;28.11
6224;BME280;3145;42.726;23.342;2023-03-25T12:39:27;70671.78;;;-142.70;28.33
6224;BME280;3145;42.726;23.342;2023-03-25T12:42:04;70693.94;;;-142.70;28.16
6224;BME280;3145;42.726;23.342;2023-03-25T12:44:49;70697.97;;;-142.70;28.44
6224;BME280;3145;42.726;23.342;2023-03-25T12:47:22;70685.88;;;-142.70;28.71
6224;BME280;3145;42.726;23.342;2023-03-25T12:50:02;70704.00;;;-142.70;28.24
6224;BME280;3145;42.726;23.342;2023-03-25T12:52:40;70697.97;;;-142.70;28.57
6224;BME280;3145;42.726;23.342;2023-03-25T12:55:24;70691.94;;;-142.70;28.60
6224;BME280;3145;42.726;23.342;2023-03-25T12:58:08;70681.88;;;-142.70;28.51
6224;BME280;3145;42.726;23.342;2023-03-25T13:00:46;70669.78;;;-142.70;28.41
6224;BME280;3145;42.726;23.342;2023-03-25T13:03:28;70675.81;;;-142.70;28.73
6224;BME280;3145;42.726;23.342;2023-03-25T13:06:08;70710.06;;;-142.70;28.38
6224;BME280;3145;42.726;23.342;2023-03-25T13:08:40;70704.00;;;-142.70;28.54